sensor_id;sensor_type;location;lat;lon;timestamp;P1;durP1;ratioP1;P2;durP2;ratioP2
68072;SDS011;54862;51.502;7.446;2023-02-15T17:33:24;21.20;;;8.82;;
68072;SDS011;54862;51.502;7.446;2023-02-15T17:36:13;21.00;;;9.55;;
68072;SDS011;54862;51.502;7.446;2023-02-15T17:38:58;20.92;;;9.52;;
68072;SDS011;54862;51.502;7.446;2023-02-15T17:41:29;22.48;;;9.25;;
68072;SDS011;54862;51.502;7.446;2023-02-15T17:43:55;19.95;;;8.90;;
68072;SDS011;54862;51.502;7.446;2023-02-15T17:46:22;22.27;;;8.77;;
68072;SDS011;54862;51.502;7.446;2023-02-15T17:48:49;19.85;;;8.93;;
68072;SDS011;54862;51.502;7.446;2023-02-15T17:51:17;19.55;;;9.38;;
68072;SDS011;54862;51.502;7.446;2023-02-15T17:53:44;18.63;;;8.35;;
68072;SDS011;54862;51.502;7.446;2023-02-15T17:56:29;20.20;;;9.18;;
68072;SDS011;54862;51.502;7.446;2023-02-15T17:58:55;17.40;;;8.13;;
68072;SDS011;54862;51.502;7.446;2023-02-15T18:01:21;18.63;;;8.40;;
68072;SDS011;54862;51.502;7.446;2023-02-15T18:04:10;16.35;;;7.35;;
68072;SDS011;54862;51.502;7.446;2023-02-15T18:06:55;19.08;;;8.50;;
68072;SDS011;54862;51.502;7.446;2023-02-15T18:09:40;15.38;;;7.78;;
68072;SDS011;54862;51.502;7.446;2023-02-15T18:12:29;19.58;;;8.80;;
68072;SDS011;54862;51.502;7.446;2023-02-15T18:14:55;19.38;;;8.32;;
68072;SDS011;54862;51.502;7.446;2023-02-15T18:17:55;21.05;;;9.35;;
68072;SDS011;54862;51.502;7.446;2023-02-15T18:22:43;21.42;;;10.25;;
68072;SDS011;54862;51.502;7.446;2023-02-15T18:25:14;24.23;;;10.25;;
68072;SDS011;54862;51.502;7.446;2023-02-15T18:27:41;22.48;;;10.43;;
68072;SDS011;54862;51.502;7.446;2023-02-15T18:30:11;27.00;;;10.23;;
68072;SDS011;54862;51.502;7.446;2023-02-15T18:32:38;20.45;;;9.82;;
68072;SDS011;54862;51.502;7.446;2023-02-15T18:35:05;20.67;;;9.73;;
68072;SDS011;54862;51.502;7.446;2023-02-15T18:37:32;21.80;;;10.65;;
68072;SDS011;54862;51.502;7.446;2023-02-15T18:39:59;17.73;;;9.30;;
68072;SDS011;54862;51.502;7.446;2023-02-15T18:42:26;20.77;;;9.43;;
68072;SDS011;54862;51.502;7.446;2023-02-15T18:44:54;21.58;;;10.27;;
68072;SDS011;54862;51.502;7.446;2023-02-15T18:47:22;20.40;;;9.70;;
68072;SDS011;54862;51.502;7.446;2023-02-15T18:49:48;21.73;;;10.02;;
68072;SDS011;54862;51.502;7.446;2023-02-15T18:52:15;21.30;;;10.57;;
68072;SDS011;54862;51.502;7.446;2023-02-15T18:54:41;18.85;;;10.30;;
68072;SDS011;54862;51.502;7.446;2023-02-15T18:57:08;19.23;;;10.38;;
68072;SDS011;54862;51.502;7.446;2023-02-15T18:59:35;21.88;;;10.32;;
68072;SDS011;54862;51.502;7.446;2023-02-15T19:02:01;23.23;;;10.27;;
68072;SDS011;54862;51.502;7.446;2023-02-15T19:04:27;19.65;;;10.30;;
68072;SDS011;54862;51.502;7.446;2023-02-15T19:06:53;22.27;;;9.75;;
68072;SDS011;54862;51.502;7.446;2023-02-15T19:09:20;20.88;;;9.82;;
68072;SDS011;54862;51.502;7.446;2023-02-15T19:11:50;21.10;;;10.95;;
68072;SDS011;54862;51.502;7.446;2023-02-15T19:14:27;20.08;;;10.40;;
68072;SDS011;54862;51.502;7.446;2023-02-15T19:16:53;23.58;;;10.00;;
68072;SDS011;54862;51.502;7.446;2023-02-15T19:19:19;18.33;;;9.98;;
68072;SDS011;54862;51.502;7.446;2023-02-15T19:21:45;20.80;;;10.25;;
68072;SDS011;54862;51.502;7.446;2023-02-15T19:24:16;21.25;;;10.68;;
68072;SDS011;54862;51.502;7.446;2023-02-15T19:26:42;20.27;;;10.15;;
68072;SDS011;54862;51.502;7.446;2023-02-15T19:29:09;19.95;;;10.23;;
68072;SDS011;54862;51.502;7.446;2023-02-15T19:31:37;21.77;;;11.10;;
68072;SDS011;54862;51.502;7.446;2023-02-15T19:34:12;20.77;;;10.68;;
68072;SDS011;54862;51.502;7.446;2023-02-15T19:36:39;20.55;;;11.00;;
68072;SDS011;54862;51.502;7.446;2023-02-15T19:39:05;21.30;;;11.20;;
68072;SDS011;54862;51.502;7.446;2023-02-15T19:41:35;23.30;;;10.52;;
68072;SDS011;54862;51.502;7.446;2023-02-15T19:44:06;23.38;;;11.70;;
68072;SDS011;54862;51.502;7.446;2023-02-15T19:46:33;22.50;;;10.50;;
68072;SDS011;54862;51.502;7.446;2023-02-15T19:49:00;22.10;;;10.38;;
68072;SDS011;54862;51.502;7.446;2023-02-15T19:51:26;18.38;;;10.13;;
68072;SDS011;54862;51.502;7.446;2023-02-15T19:53:52;20.65;;;10.68;;
68072;SDS011;54862;51.502;7.446;2023-02-15T19:56:21;21.42;;;11.25;;
68072;SDS011;54862;51.502;7.446;2023-02-15T19:58:48;23.80;;;11.00;;
68072;SDS011;54862;51.502;7.446;2023-02-15T20:01:17;21.85;;;10.73;;
68072;SDS011;54862;51.502;7.446;2023-02-15T20:03:43;19.58;;;10.85;;
68072;SDS011;54862;51.502;7.446;2023-02-15T20:06:12;22.95;;;10.88;;
68072;SDS011;54862;51.502;7.446;2023-02-15T20:08:38;23.23;;;11.85;;
68072;SDS011;54862;51.502;7.446;2023-02-15T20:11:09;21.17;;;11.43;;
68072;SDS011;54862;51.502;7.446;2023-02-15T20:13:35;21.23;;;10.85;;
68072;SDS011;54862;51.502;7.446;2023-02-15T20:16:01;25.52;;;11.70;;
68072;SDS011;54862;51.502;7.446;2023-02-15T20:18:31;24.20;;;12.05;;
68072;SDS011;54862;51.502;7.446;2023-02-15T20:20:57;24.95;;;12.32;;
68072;SDS011;54862;51.502;7.446;2023-02-15T20:23:33;22.13;;;10.95;;
68072;SDS011;54862;51.502;7.446;2023-02-15T20:26:00;23.33;;;11.60;;
68072;SDS011;54862;51.502;7.446;2023-02-15T20:28:27;24.83;;;11.25;;
68072;SDS011;54862;51.502;7.446;2023-02-15T20:30:53;25.25;;;11.30;;
68072;SDS011;54862;51.502;7.446;2023-02-15T20:33:20;27.15;;;12.00;;
68072;SDS011;54862;51.502;7.446;2023-02-15T20:35:46;23.88;;;11.35;;
68072;SDS011;54862;51.502;7.446;2023-02-15T20:38:22;23.30;;;12.20;;
68072;SDS011;54862;51.502;7.446;2023-02-15T20:40:50;22.17;;;11.40;;
68072;SDS011;54862;51.502;7.446;2023-02-15T20:43:35;25.25;;;12.23;;
68072;SDS011;54862;51.502;7.446;2023-02-15T20:46:01;23.05;;;11.80;;
68072;SDS011;54862;51.502;7.446;2023-02-15T20:48:27;22.02;;;11.57;;
68072;SDS011;54862;51.502;7.446;2023-02-15T20:50:54;23.80;;;11.60;;
68072;SDS011;54862;51.502;7.446;2023-02-15T20:53:22;21.70;;;11.00;;
68072;SDS011;54862;51.502;7.446;2023-02-15T20:55:49;26.15;;;12.57;;
68072;SDS011;54862;51.502;7.446;2023-02-15T20:58:22;26.42;;;12.80;;
68072;SDS011;54862;51.502;7.446;2023-02-15T21:00:48;25.33;;;12.85;;
68072;SDS011;54862;51.502;7.446;2023-02-15T21:03:15;26.38;;;12.75;;
68072;SDS011;54862;51.502;7.446;2023-02-15T21:05:42;27.52;;;14.50;;
68072;SDS011;54862;51.502;7.446;2023-02-15T21:08:14;28.83;;;13.98;;
68072;SDS011;54862;51.502;7.446;2023-02-15T21:10:40;24.15;;;13.20;;
68072;SDS011;54862;51.502;7.446;2023-02-15T21:13:14;29.58;;;13.38;;
68072;SDS011;54862;51.502;7.446;2023-02-15T21:15:44;28.15;;;14.05;;
68072;SDS011;54862;51.502;7.446;2023-02-15T21:18:11;28.08;;;13.73;;
68072;SDS011;54862;51.502;7.446;2023-02-15T21:20:40;25.60;;;13.57;;
68072;SDS011;54862;51.502;7.446;2023-02-15T21:23:09;24.33;;;11.57;;
68072;SDS011;54862;51.502;7.446;2023-02-15T21:25:36;26.20;;;11.82;;
68072;SDS011;54862;51.502;7.446;2023-02-15T21:28:03;23.15;;;11.57;;
68072;SDS011;54862;51.502;7.446;2023-02-15T21:30:31;23.02;;;11.90;;
68072;SDS011;54862;51.502;7.446;2023-02-15T21:32:57;26.05;;;12.75;;
68072;SDS011;54862;51.502;7.446;2023-02-15T21:35:23;25.63;;;12.30;;
68072;SDS011;54862;51.502;7.446;2023-02-15T21:37:50;26.20;;;11.45;;
68072;SDS011;54862;51.502;7.446;2023-02-15T21:40:24;27.67;;;12.45;;
68072;SDS011;54862;51.502;7.446;2023-02-15T21:42:51;23.75;;;11.82;;
68072;SDS011;54862;51.502;7.446;2023-02-15T21:45:35;23.52;;;11.68;;
68072;SDS011;54862;51.502;7.446;2023-02-15T21:48:20;24.77;;;12.25;;
68072;SDS011;54862;51.502;7.446;2023-02-15T21:50:46;26.98;;;12.85;;
68072;SDS011;54862;51.502;7.446;2023-02-15T21:53:32;26.60;;;13.63;;
68072;SDS011;54862;51.502;7.446;2023-02-15T21:55:59;26.65;;;13.35;;
68072;SDS011;54862;51.502;7.446;2023-02-15T21:58:27;27.15;;;13.45;;
68072;SDS011;54862;51.502;7.446;2023-02-15T22:00:54;27.23;;;13.30;;
68072;SDS011;54862;51.502;7.446;2023-02-15T22:03:22;25.27;;;13.13;;
68072;SDS011;54862;51.502;7.446;2023-02-15T22:05:48;26.30;;;13.45;;
68072;SDS011;54862;51.502;7.446;2023-02-15T22:08:18;26.08;;;12.95;;
68072;SDS011;54862;51.502;7.446;2023-02-15T22:10:49;25.42;;;12.75;;
68072;SDS011;54862;51.502;7.446;2023-02-15T22:13:24;27.60;;;13.35;;
68072;SDS011;54862;51.502;7.446;2023-02-15T22:15:51;25.58;;;12.75;;
68072;SDS011;54862;51.502;7.446;2023-02-15T22:18:19;28.65;;;13.52;;
68072;SDS011;54862;51.502;7.446;2023-02-15T22:20:45;25.50;;;12.85;;
68072;SDS011;54862;51.502;7.446;2023-02-15T22:23:11;26.63;;;12.95;;
68072;SDS011;54862;51.502;7.446;2023-02-15T22:25:37;28.00;;;13.13;;
68072;SDS011;54862;51.502;7.446;2023-02-15T22:28:03;22.65;;;12.55;;
68072;SDS011;54862;51.502;7.446;2023-02-15T22:30:33;25.33;;;13.55;;
68072;SDS011;54862;51.502;7.446;2023-02-15T22:33:00;27.85;;;12.98;;
68072;SDS011;54862;51.502;7.446;2023-02-15T22:35:30;26.77;;;12.73;;
68072;SDS011;54862;51.502;7.446;2023-02-15T22:37:57;29.48;;;14.15;;
68072;SDS011;54862;51.502;7.446;2023-02-15T22:40:27;27.52;;;13.45;;
68072;SDS011;54862;51.502;7.446;2023-02-15T22:42:53;25.60;;;12.68;;
68072;SDS011;54862;51.502;7.446;2023-02-15T22:45:20;29.55;;;14.27;;
68072;SDS011;54862;51.502;7.446;2023-02-15T22:47:47;25.63;;;13.32;;
68072;SDS011;54862;51.502;7.446;2023-02-15T22:50:15;29.13;;;13.55;;
68072;SDS011;54862;51.502;7.446;2023-02-15T22:52:42;29.02;;;12.57;;
68072;SDS011;54862;51.502;7.446;2023-02-15T22:55:08;28.55;;;14.27;;
68072;SDS011;54862;51.502;7.446;2023-02-15T22:57:34;30.15;;;14.02;;
68072;SDS011;54862;51.502;7.446;2023-02-15T23:00:00;28.70;;;13.75;;
68072;SDS011;54862;51.502;7.446;2023-02-15T23:02:26;26.00;;;12.57;;
68072;SDS011;54862;51.502;7.446;2023-02-15T23:04:52;26.98;;;13.90;;
68072;SDS011;54862;51.502;7.446;2023-02-15T23:07:18;26.67;;;12.77;;
68072;SDS011;54862;51.502;7.446;2023-02-15T23:09:46;27.60;;;13.75;;
68072;SDS011;54862;51.502;7.446;2023-02-15T23:14:44;29.23;;;13.80;;
68072;SDS011;54862;51.502;7.446;2023-02-15T23:17:10;28.83;;;13.68;;
68072;SDS011;54862;51.502;7.446;2023-02-15T23:19:36;25.58;;;14.30;;
68072;SDS011;54862;51.502;7.446;2023-02-15T23:22:02;28.70;;;14.02;;
68072;SDS011;54862;51.502;7.446;2023-02-15T23:24:28;28.33;;;13.68;;
68072;SDS011;54862;51.502;7.446;2023-02-15T23:26:55;28.30;;;13.80;;
68072;SDS011;54862;51.502;7.446;2023-02-15T23:29:41;27.85;;;13.43;;
68072;SDS011;54862;51.502;7.446;2023-02-15T23:32:07;28.33;;;13.98;;
68072;SDS011;54862;51.502;7.446;2023-02-15T23:34:36;28.77;;;14.02;;
68072;SDS011;54862;51.502;7.446;2023-02-15T23:37:02;29.55;;;13.88;;
68072;SDS011;54862;51.502;7.446;2023-02-15T23:39:28;28.40;;;13.95;;
68072;SDS011;54862;51.502;7.446;2023-02-15T23:42:14;28.52;;;14.48;;
68072;SDS011;54862;51.502;7.446;2023-02-15T23:44:41;27.85;;;14.63;;
68072;SDS011;54862;51.502;7.446;2023-02-15T23:47:27;27.40;;;14.43;;
68072;SDS011;54862;51.502;7.446;2023-02-15T23:50:17;30.15;;;14.77;;
68072;SDS011;54862;51.502;7.446;2023-02-15T23:52:43;26.50;;;14.05;;
68072;SDS011;54862;51.502;7.446;2023-02-15T23:55:12;29.27;;;14.80;;
68072;SDS011;54862;51.502;7.446;2023-02-15T23:57:39;32.45;;;14.35;;
